createdAt,value
2017-04-23T00:00:21.424Z,0
2017-04-23T00:01:21.722Z,0
2017-04-23T00:02:21.717Z,0
2017-04-23T00:03:21.380Z,0
2017-04-23T00:04:21.680Z,0
2017-04-23T00:05:21.343Z,0
2017-04-23T00:06:21.326Z,0
2017-04-23T00:07:21.636Z,0
2017-04-23T00:08:21.300Z,0
2017-04-23T00:09:21.287Z,0
2017-04-23T00:10:21.585Z,0
2017-04-23T00:11:21.572Z,0
2017-04-23T00:12:21.552Z,0
2017-04-23T00:13:21.536Z,0
2017-04-23T00:14:21.208Z,0
2017-04-23T00:15:21.505Z,0
2017-04-23T00:16:21.489Z,0
2017-04-23T00:17:21.474Z,0
2017-04-23T00:18:21.468Z,0
2017-04-23T00:19:21.451Z,0
2017-04-23T00:20:21.432Z,0
2017-04-23T00:21:21.418Z,0
2017-04-23T00:22:21.398Z,0
2017-04-23T00:23:21.069Z,0
2017-04-23T00:24:21.379Z,0
2017-04-23T00:25:20.725Z,0
2017-04-23T00:26:21.348Z,0
2017-04-23T00:27:21.010Z,0
2017-04-23T00:28:21.319Z,0
2017-04-23T00:29:21.291Z,0
2017-04-23T00:30:21.279Z,0
2017-04-23T00:31:20.955Z,0
2017-04-23T00:32:21.255Z,0
2017-04-23T00:33:21.234Z,0
2017-04-23T00:34:21.222Z,0
2017-04-23T00:35:21.205Z,0
2017-04-23T00:36:20.878Z,0
2017-04-23T00:37:20.860Z,0
2017-04-23T00:38:21.158Z,0
2017-04-23T00:39:20.825Z,0
2017-04-23T00:40:21.130Z,0
2017-04-23T00:41:20.807Z,0
2017-04-23T00:42:20.778Z,0
2017-04-23T00:43:21.083Z,0
2017-04-23T00:44:21.066Z,0
2017-04-23T00:45:21.058Z,0
2017-04-23T00:46:21.040Z,0
2017-04-23T00:47:21.022Z,0
2017-04-23T00:48:20.692Z,0
2017-04-23T00:49:21.012Z,0
2017-04-23T00:50:20.974Z,0
2017-04-23T00:51:20.965Z,0
2017-04-23T00:52:20.633Z,0
2017-04-23T00:53:20.616Z,0
2017-04-23T00:54:20.602Z,0
2017-04-23T00:55:20.582Z,0
2017-04-23T00:56:20.883Z,0
2017-04-23T00:57:20.869Z,0
2017-04-23T00:58:20.220Z,0
2017-04-23T00:59:20.208Z,0
2017-04-23T01:00:20.513Z,0
2017-04-23T01:01:20.809Z,0
2017-04-23T01:02:20.477Z,0
2017-04-23T01:03:20.471Z,0
2017-04-23T01:04:20.445Z,0
2017-04-23T01:05:20.750Z,0
2017-04-23T01:06:20.729Z,0
2017-04-23T01:07:20.721Z,0
2017-04-23T01:08:20.707Z,0
2017-04-23T01:09:20.686Z,0
2017-04-23T01:10:20.364Z,0
2017-04-23T01:11:20.655Z,0
2017-04-23T01:12:20.638Z,0
2017-04-23T01:13:20.311Z,0
2017-04-23T01:14:20.618Z,0
2017-04-23T01:15:20.590Z,0
2017-04-23T01:16:20.263Z,0
2017-04-23T01:17:20.243Z,0
2017-04-23T01:18:20.237Z,0
2017-04-23T01:19:20.531Z,0
2017-04-23T01:20:20.204Z,0
2017-04-23T01:21:20.183Z,0
2017-04-23T01:22:19.860Z,0
2017-04-23T01:23:20.158Z,0
2017-04-23T01:24:20.452Z,0
2017-04-23T01:25:20.125Z,0
2017-04-23T01:26:20.423Z,0
2017-04-23T01:27:20.103Z,0
2017-04-23T01:28:20.079Z,0
2017-04-23T01:29:20.060Z,0
2017-04-23T01:30:20.361Z,0
2017-04-23T01:31:20.342Z,0
2017-04-23T01:32:20.329Z,0
2017-04-23T01:33:20.316Z,0
2017-04-23T01:34:19.988Z,0
2017-04-23T01:35:20.284Z,0
2017-04-23T01:36:19.537Z,0
2017-04-23T01:37:19.497Z,0
2017-04-23T01:38:19.520Z,0
2017-04-23T01:39:20.061Z,0
2017-04-23T01:40:19.712Z,0
2017-04-23T01:41:20.196Z,0
2017-04-23T01:42:19.545Z,0
2017-04-23T01:43:19.850Z,0
2017-04-23T01:44:20.150Z,0
2017-04-23T01:45:20.129Z,0
2017-04-23T01:46:20.115Z,0
2017-04-23T01:47:19.788Z,0
2017-04-23T01:48:19.765Z,0
2017-04-23T01:49:19.754Z,0
2017-04-23T01:50:20.058Z,0
2017-04-23T01:51:19.720Z,0
2017-04-23T01:52:19.710Z,0
2017-04-23T01:53:20.004Z,0
2017-04-23T01:54:19.680Z,0
2017-04-23T01:55:19.660Z,0
2017-04-23T01:56:19.964Z,0
2017-04-23T01:57:19.949Z,0
2017-04-23T01:58:19.927Z,0
2017-04-23T01:59:19.916Z,0
2017-04-23T02:00:19.892Z,0
2017-04-23T02:01:19.882Z,0
2017-04-23T02:02:19.550Z,0
2017-04-23T02:03:19.537Z,0
2017-04-23T02:04:19.523Z,0
2017-04-23T02:05:19.189Z,0
2017-04-23T02:06:19.804Z,0
2017-04-23T02:07:19.481Z,0
2017-04-23T02:08:19.462Z,0
2017-04-23T02:09:19.758Z,0
2017-04-23T02:10:19.424Z,0
2017-04-23T02:11:19.096Z,0
2017-04-23T02:12:19.399Z,0
2017-04-23T02:13:19.695Z,0
2017-04-23T02:14:19.685Z,0
2017-04-23T02:15:19.661Z,0
2017-04-23T02:16:19.371Z,0
2017-04-23T02:17:19.626Z,0
2017-04-23T02:18:19.618Z,0
2017-04-23T02:19:19.290Z,0
2017-04-23T02:20:19.273Z,0
2017-04-23T02:21:19.576Z,0
2017-04-23T02:22:19.236Z,0
2017-04-23T02:23:19.550Z,0
2017-04-23T02:24:19.217Z,0
2017-04-23T02:25:19.198Z,0
2017-04-23T02:26:19.175Z,0
2017-04-23T02:27:19.477Z,0
2017-04-23T02:28:18.833Z,0
2017-04-23T02:29:19.448Z,0
2017-04-23T02:30:19.114Z,0
2017-04-23T02:31:19.106Z,0
2017-04-23T02:32:19.084Z,0
2017-04-23T02:33:19.390Z,0
2017-04-23T02:34:19.379Z,0
2017-04-23T02:35:19.053Z,0
2017-04-23T02:36:19.354Z,0
2017-04-23T02:37:19.019Z,0
2017-04-23T02:38:19.326Z,0
2017-04-23T02:39:18.993Z,0
2017-04-23T02:40:18.977Z,0
2017-04-23T02:41:18.965Z,0
2017-04-23T02:42:18.946Z,0
2017-04-23T02:43:18.932Z,0
2017-04-23T02:44:18.600Z,0
2017-04-23T02:45:18.901Z,0
2017-04-23T02:46:18.897Z,0
2017-04-23T02:47:18.553Z,0
2017-04-23T02:48:18.848Z,0
2017-04-23T02:49:19.147Z,0
2017-04-23T02:50:19.137Z,0
2017-04-23T02:51:19.120Z,0
2017-04-23T02:52:18.786Z,0
2017-04-23T02:53:18.455Z,0
2017-04-23T02:54:18.783Z,0
2017-04-23T02:55:19.053Z,0
2017-04-23T02:56:18.725Z,0
2017-04-23T02:57:19.024Z,0
2017-04-23T02:58:19.013Z,0
2017-04-23T02:59:18.997Z,0
2017-04-23T03:00:18.660Z,0
2017-04-23T03:01:18.645Z,0
2017-04-23T03:02:18.317Z,0
2017-04-23T03:03:18.927Z,0
2017-04-23T03:04:18.604Z,0
2017-04-23T03:05:18.616Z,0
2017-04-23T03:06:18.564Z,0
2017-04-23T03:07:18.868Z,0
2017-04-23T03:08:18.854Z,0
2017-04-23T03:09:18.836Z,0
2017-04-23T03:10:18.518Z,0
2017-04-23T03:11:18.811Z,0
2017-04-23T03:12:18.472Z,0
2017-04-23T03:13:18.460Z,0
2017-04-23T03:14:18.444Z,0
2017-04-23T03:15:18.738Z,0
2017-04-23T03:16:18.095Z,0
2017-04-23T03:17:18.706Z,0
2017-04-23T03:18:18.375Z,0
2017-04-23T03:19:18.051Z,0
2017-04-23T03:20:18.660Z,0
2017-04-23T03:21:18.334Z,0
2017-04-23T03:22:18.315Z,0
2017-04-23T03:23:18.302Z,0
2017-04-23T03:24:17.974Z,0
2017-04-23T03:25:18.582Z,0
2017-04-23T03:26:18.573Z,0
2017-04-23T03:27:18.234Z,0
2017-04-23T03:28:18.224Z,0
2017-04-23T03:29:18.521Z,0
2017-04-23T03:30:18.507Z,0
2017-04-23T03:31:18.169Z,0
2017-04-23T03:32:18.154Z,0
2017-04-23T03:33:18.160Z,0
2017-04-23T03:34:18.127Z,0
2017-04-23T03:35:18.421Z,0
2017-04-23T03:36:17.796Z,4
2017-04-23T03:37:18.080Z,4
2017-04-23T03:38:18.373Z,4
2017-04-23T03:39:18.361Z,4
2017-04-23T03:40:18.034Z,0
2017-04-23T03:41:18.015Z,4
2017-04-23T03:42:17.999Z,4
2017-04-23T03:43:18.296Z,8
2017-04-23T03:44:17.972Z,12
2017-04-23T03:45:17.958Z,12
2017-04-23T03:46:17.935Z,8
2017-04-23T03:47:18.244Z,12
2017-04-23T03:48:17.911Z,12
2017-04-23T03:49:18.209Z,20
2017-04-23T03:50:18.191Z,20
2017-04-23T03:51:17.857Z,20
2017-04-23T03:52:18.156Z,20
2017-04-23T03:53:18.142Z,24
2017-04-23T03:54:17.819Z,20
2017-04-23T03:55:17.483Z,24
2017-04-23T03:56:18.095Z,28
2017-04-23T03:57:17.765Z,36
2017-04-23T03:58:18.067Z,44
2017-04-23T03:59:18.052Z,48
2017-04-23T04:00:17.715Z,44
2017-04-23T04:01:18.014Z,44
2017-04-23T04:02:17.685Z,48
2017-04-23T04:03:17.986Z,52
2017-04-23T04:04:17.971Z,60
2017-04-23T04:05:17.950Z,68
2017-04-23T04:06:17.938Z,56
2017-04-23T04:07:17.606Z,60
2017-04-23T04:08:17.908Z,72
2017-04-23T04:09:17.262Z,80
2017-04-23T04:10:17.872Z,72
2017-04-23T04:11:17.858Z,76
2017-04-23T04:12:17.843Z,100
2017-04-23T04:13:17.829Z,100
2017-04-23T04:14:17.817Z,96
2017-04-23T04:15:17.795Z,108
2017-04-23T04:16:17.468Z,136
2017-04-23T04:17:17.447Z,172
2017-04-23T04:18:17.442Z,188
2017-04-23T04:19:17.420Z,188
2017-04-23T04:20:17.405Z,212
2017-04-23T04:21:17.705Z,212
2017-04-23T04:22:17.372Z,220
2017-04-23T04:23:17.677Z,268
2017-04-23T04:24:17.670Z,292
2017-04-23T04:25:17.635Z,312
2017-04-23T04:26:17.624Z,324
2017-04-23T04:27:17.608Z,336
2017-04-23T04:28:17.591Z,332
2017-04-23T04:29:17.268Z,340
2017-04-23T04:30:17.250Z,420
2017-04-23T04:31:17.228Z,388
2017-04-23T04:32:17.555Z,396
2017-04-23T04:33:17.520Z,368
2017-04-23T04:34:17.503Z,372
2017-04-23T04:35:17.171Z,364
2017-04-23T04:36:17.461Z,448
2017-04-23T04:37:17.149Z,540
2017-04-23T04:38:17.431Z,584
2017-04-23T04:39:17.104Z,632
2017-04-23T04:40:16.457Z,692
2017-04-23T04:41:17.075Z,752
2017-04-23T04:42:16.751Z,716
2017-04-23T04:43:17.361Z,664
2017-04-23T04:44:17.336Z,680
2017-04-23T04:45:17.005Z,684
2017-04-23T04:46:17.314Z,708
2017-04-23T04:47:16.660Z,744
2017-04-23T04:48:16.961Z,744
2017-04-23T04:49:16.958Z,716
2017-04-23T04:50:16.925Z,700
2017-04-23T04:51:17.227Z,740
2017-04-23T04:52:16.895Z,768
2017-04-23T04:53:17.198Z,756
2017-04-23T04:54:16.867Z,756
2017-04-23T04:55:16.847Z,808
2017-04-23T04:56:16.831Z,872
2017-04-23T04:57:17.135Z,880
2017-04-23T04:58:16.805Z,916
2017-04-23T04:59:17.099Z,916
2017-04-23T05:00:16.771Z,792
2017-04-23T05:01:16.752Z,852
2017-04-23T05:02:17.057Z,896
2017-04-23T05:03:16.722Z,896
2017-04-23T05:04:17.030Z,888
2017-04-23T05:05:17.009Z,776
2017-04-23T05:06:16.681Z,708
2017-04-23T05:07:16.974Z,712
2017-04-23T05:08:16.661Z,700
2017-04-23T05:09:16.947Z,744
2017-04-23T05:10:16.930Z,796
2017-04-23T05:11:16.596Z,820
2017-04-23T05:12:16.894Z,1048
2017-04-23T05:13:16.880Z,1044
2017-04-23T05:14:16.866Z,900
2017-04-23T05:15:16.535Z,920
2017-04-23T05:16:16.531Z,1052
2017-04-23T05:17:16.502Z,1044
2017-04-23T05:18:16.807Z,976
2017-04-23T05:19:16.787Z,1096
2017-04-23T05:20:16.772Z,1288
2017-04-23T05:21:16.437Z,1488
2017-04-23T05:22:16.425Z,1532
2017-04-23T05:23:16.729Z,1468
2017-04-23T05:24:16.708Z,1304
2017-04-23T05:25:16.695Z,1304
2017-04-23T05:26:16.677Z,1456
2017-04-23T05:27:16.346Z,1804
2017-04-23T05:28:16.645Z,1944
2017-04-23T05:29:16.314Z,1752
2017-04-23T05:30:15.988Z,1888
2017-04-23T05:31:16.600Z,1904
2017-04-23T05:32:15.955Z,1928
2017-04-23T05:33:16.255Z,1996
2017-04-23T05:34:16.575Z,1880
2017-04-23T05:35:15.906Z,1796
2017-04-23T05:36:16.518Z,1808
2017-04-23T05:37:16.505Z,2044
2017-04-23T05:38:16.497Z,2144
2017-04-23T05:39:16.162Z,2176
2017-04-23T05:40:16.458Z,2320
2017-04-23T05:41:16.130Z,2328
2017-04-23T05:42:16.108Z,2416
2017-04-23T05:43:15.467Z,2424
2017-04-23T05:44:16.100Z,2464
2017-04-23T05:45:16.070Z,2476
2017-04-23T05:46:16.367Z,2480
2017-04-23T05:47:16.042Z,2412
2017-04-23T05:48:16.337Z,2336
2017-04-23T05:49:16.334Z,2416
2017-04-23T05:50:15.731Z,2320
2017-04-23T05:51:16.289Z,2148
2017-04-23T05:52:15.954Z,2020
2017-04-23T05:53:15.627Z,2296
2017-04-23T05:54:16.241Z,2628
2017-04-23T05:55:15.911Z,2620
2017-04-23T05:56:16.207Z,2420
2017-04-23T05:57:16.194Z,2432
2017-04-23T05:58:15.867Z,3088
2017-04-23T05:59:16.166Z,3340
2017-04-23T06:00:16.153Z,3432
2017-04-23T06:01:16.132Z,3584
2017-04-23T06:02:16.114Z,3704
2017-04-23T06:03:16.111Z,3904
2017-04-23T06:04:15.771Z,3984
2017-04-23T06:05:15.755Z,4020
2017-04-23T06:06:15.776Z,4008
2017-04-23T06:07:16.041Z,4032
2017-04-23T06:08:16.028Z,4108
2017-04-23T06:09:15.702Z,4236
2017-04-23T06:10:15.694Z,4424
2017-04-23T06:11:15.665Z,4596
2017-04-23T06:12:15.340Z,4820
2017-04-23T06:13:15.947Z,4872
2017-04-23T06:14:15.621Z,4832
2017-04-23T06:15:15.916Z,4728
2017-04-23T06:16:15.588Z,4560
2017-04-23T06:17:15.575Z,4436
2017-04-23T06:18:15.564Z,4288
2017-04-23T06:19:15.859Z,4332
2017-04-23T06:20:15.841Z,4340
2017-04-23T06:21:15.828Z,4608
2017-04-23T06:22:15.499Z,4436
2017-04-23T06:23:15.170Z,4268
2017-04-23T06:24:15.477Z,4284
2017-04-23T06:25:15.455Z,4292
2017-04-23T06:26:15.122Z,3872
2017-04-23T06:27:15.742Z,3644
2017-04-23T06:28:15.410Z,3360
2017-04-23T06:29:15.713Z,2716
2017-04-23T06:30:15.693Z,2904
2017-04-23T06:31:15.678Z,3580
2017-04-23T06:32:15.347Z,3576
2017-04-23T06:33:15.022Z,3248
2017-04-23T06:34:15.000Z,3980
2017-04-23T06:35:15.617Z,4520
2017-04-23T06:36:15.292Z,4252
2017-04-23T06:37:15.277Z,4072
2017-04-23T06:38:15.258Z,4124
2017-04-23T06:39:15.566Z,4676
2017-04-23T06:40:15.541Z,4604
2017-04-23T06:41:15.530Z,3460
2017-04-23T06:42:14.881Z,3252
2017-04-23T06:43:15.188Z,4176
2017-04-23T06:44:15.483Z,4480
2017-04-23T06:45:15.157Z,3924
2017-04-23T06:46:15.463Z,4088
2017-04-23T06:47:15.123Z,4352
2017-04-23T06:48:15.423Z,4640
2017-04-23T06:49:15.412Z,5792
2017-04-23T06:50:15.077Z,6636
2017-04-23T06:51:15.063Z,6676
2017-04-23T06:52:15.049Z,6808
2017-04-23T06:53:15.036Z,6868
2017-04-23T06:54:15.337Z,7120
2017-04-23T06:55:15.006Z,7448
2017-04-23T06:56:15.306Z,8196
2017-04-23T06:57:15.290Z,9060
2017-04-23T06:58:15.279Z,9284
2017-04-23T06:59:14.951Z,9232
2017-04-23T07:00:14.938Z,9408
2017-04-23T07:01:14.915Z,9580
2017-04-23T07:02:14.902Z,9208
2017-04-23T07:03:14.893Z,8860
2017-04-23T07:04:14.905Z,8568
2017-04-23T07:05:15.173Z,8044
2017-04-23T07:06:15.166Z,9016
2017-04-23T07:07:15.144Z,8516
2017-04-23T07:08:14.504Z,8796
2017-04-23T07:09:14.803Z,10232
2017-04-23T07:10:14.804Z,10756
2017-04-23T19:19:22.849Z,0
2017-04-23T19:20:22.507Z,0
2017-04-23T19:21:22.487Z,0
2017-04-23T19:22:22.474Z,0
2017-04-23T19:23:22.775Z,0
2017-04-23T19:24:22.440Z,0
2017-04-23T19:25:22.420Z,0
2017-04-23T19:26:22.715Z,0
2017-04-23T19:27:22.698Z,0
2017-04-23T19:28:22.378Z,0
2017-04-23T19:29:22.669Z,0
2017-04-23T19:30:22.041Z,0
2017-04-23T19:31:22.012Z,0
2017-04-23T19:32:22.626Z,0
2017-04-23T19:33:22.295Z,0
2017-04-23T19:34:22.601Z,0
2017-04-23T19:35:22.575Z,0
2017-04-23T19:36:22.248Z,0
2017-04-23T19:37:22.547Z,0
2017-04-23T19:38:22.221Z,0
2017-04-23T19:39:22.526Z,0
2017-04-23T19:40:22.185Z,0
2017-04-23T19:41:22.487Z,0
2017-04-23T19:42:22.472Z,0
2017-04-23T19:43:22.147Z,0
2017-04-23T19:44:22.443Z,0
2017-04-23T19:45:21.801Z,0
2017-04-23T19:46:22.099Z,0
2017-04-23T19:47:22.399Z,0
2017-04-23T19:48:22.387Z,0
2017-04-23T19:49:22.054Z,0
2017-04-23T19:50:22.363Z,0
2017-04-23T19:51:22.033Z,0
2017-04-23T19:52:22.017Z,0
2017-04-23T19:53:22.008Z,0
2017-04-23T19:54:22.327Z,0
2017-04-23T19:55:21.976Z,0
2017-04-23T19:56:21.956Z,0
2017-04-23T19:57:21.948Z,0
2017-04-23T19:58:21.938Z,0
2017-04-23T19:59:21.920Z,0
2017-04-23T20:00:22.213Z,0
2017-04-23T20:01:22.203Z,0
2017-04-23T20:02:22.188Z,0
2017-04-23T20:03:21.864Z,0
2017-04-23T20:04:22.161Z,0
2017-04-23T20:05:21.833Z,0
2017-04-23T20:06:22.139Z,0
2017-04-23T20:07:22.117Z,0
2017-04-23T20:08:22.112Z,0
2017-04-23T20:09:22.096Z,0
2017-04-23T20:10:21.760Z,0
2017-04-23T20:11:22.063Z,0
2017-04-23T20:12:22.054Z,0
2017-04-23T20:13:22.036Z,0
2017-04-23T20:14:21.706Z,0
2017-04-23T20:15:22.009Z,0
2017-04-23T20:16:21.995Z,0
2017-04-23T20:17:21.981Z,0
2017-04-23T20:18:21.969Z,0
2017-04-23T20:19:21.952Z,0
2017-04-23T20:20:21.630Z,0
2017-04-23T20:21:21.615Z,0
2017-04-23T20:22:21.904Z,0
2017-04-23T20:23:21.586Z,0
2017-04-23T20:24:21.880Z,0
2017-04-23T20:25:21.869Z,0
2017-04-23T20:26:20.912Z,0
2017-04-23T20:27:21.526Z,0
2017-04-23T20:28:21.825Z,0
2017-04-23T20:29:21.818Z,0
2017-04-23T20:30:21.801Z,0
2017-04-23T20:31:21.785Z,0
2017-04-23T20:32:21.147Z,0
2017-04-23T20:33:21.452Z,0
2017-04-23T20:34:21.744Z,0
2017-04-23T20:35:21.733Z,0
2017-04-23T20:36:21.722Z,0
2017-04-23T20:37:21.703Z,0
2017-04-23T20:38:21.392Z,0
2017-04-23T20:39:21.361Z,0
2017-04-23T20:40:21.662Z,0
2017-04-23T20:41:21.645Z,0
2017-04-23T20:42:21.316Z,0
2017-04-23T20:43:21.625Z,0
2017-04-23T20:44:21.608Z,0
2017-04-23T20:45:21.274Z,0
2017-04-23T20:46:21.578Z,0
2017-04-23T20:47:21.563Z,0
2017-04-23T20:48:21.550Z,0
2017-04-23T20:49:21.536Z,0
2017-04-23T20:50:21.518Z,0
2017-04-23T20:51:21.512Z,0
2017-04-23T20:52:21.503Z,0
2017-04-23T20:53:21.482Z,0
2017-04-23T20:54:21.471Z,0
2017-04-23T20:55:21.456Z,0
2017-04-23T20:56:21.436Z,0
2017-04-23T20:57:21.117Z,0
2017-04-23T20:58:21.415Z,0
2017-04-23T20:59:21.400Z,0
2017-04-23T21:00:21.386Z,0
2017-04-23T21:01:21.369Z,0
2017-04-23T21:02:21.048Z,0
2017-04-23T21:03:21.029Z,0
2017-04-23T21:04:21.330Z,0
2017-04-23T21:05:21.359Z,0
2017-04-23T21:06:21.300Z,0
2017-04-23T21:07:20.970Z,0
2017-04-23T21:08:21.275Z,0
2017-04-23T21:09:21.281Z,0
2017-04-23T21:10:21.248Z,0
2017-04-23T21:11:21.242Z,0
2017-04-23T21:12:20.904Z,0
2017-04-23T21:13:21.226Z,0
2017-04-23T21:14:21.209Z,0
2017-04-23T21:15:21.176Z,0
2017-04-23T21:16:20.854Z,0
2017-04-23T21:17:20.840Z,0
2017-04-23T21:18:21.146Z,0
2017-04-23T21:19:21.126Z,0
2017-04-23T21:20:21.119Z,0
2017-04-23T21:21:21.099Z,0
2017-04-23T21:22:20.766Z,0
2017-04-23T21:23:20.752Z,0
2017-04-23T21:24:21.054Z,0
2017-04-23T21:25:20.740Z,0
2017-04-23T21:26:20.713Z,0
2017-04-23T21:27:21.032Z,0
2017-04-23T21:28:21.018Z,0
2017-04-23T21:29:20.681Z,0
2017-04-23T21:30:20.978Z,0
2017-04-23T21:31:20.337Z,0
2017-04-23T21:32:20.940Z,0
2017-04-23T21:33:20.931Z,0
2017-04-23T21:34:20.916Z,0
2017-04-23T21:35:20.903Z,0
2017-04-23T21:36:20.888Z,0
2017-04-23T21:37:20.874Z,0
2017-04-23T21:38:20.856Z,0
2017-04-23T21:39:20.540Z,0
2017-04-23T21:40:20.837Z,0
2017-04-23T21:41:20.822Z,0
2017-04-23T21:42:20.490Z,0
2017-04-23T21:43:20.791Z,0
2017-04-23T21:44:20.806Z,0
2017-04-23T21:45:20.763Z,0
2017-04-23T21:46:20.750Z,0
2017-04-23T21:47:20.106Z,0
2017-04-23T21:48:20.428Z,0
2017-04-23T21:49:20.719Z,0
2017-04-23T21:50:20.383Z,0
2017-04-23T21:51:20.365Z,0
2017-04-23T21:52:20.667Z,0
2017-04-23T21:53:20.654Z,0
2017-04-23T21:54:20.642Z,0
2017-04-23T21:55:19.996Z,0
2017-04-23T21:56:20.297Z,0
2017-04-23T21:57:20.598Z,0
2017-04-23T21:58:20.581Z,0
2017-04-23T21:59:20.255Z,0
2017-04-23T22:00:20.578Z,0
2017-04-23T22:01:20.541Z,0
2017-04-23T22:02:20.531Z,0
2017-04-23T22:03:20.197Z,0
2017-04-23T22:04:20.215Z,0
2017-04-23T22:05:20.507Z,0
2017-04-23T22:06:20.475Z,0
2017-04-23T22:07:20.141Z,0
2017-04-23T22:08:20.125Z,0
2017-04-23T22:09:20.115Z,0
2017-04-23T22:10:20.099Z,0
2017-04-23T22:11:20.095Z,0
2017-04-23T22:12:20.390Z,0
2017-04-23T22:13:20.369Z,0
2017-04-23T22:14:20.363Z,0
2017-04-23T22:15:20.342Z,0
2017-04-23T22:16:20.018Z,0
2017-04-23T22:17:20.001Z,0
2017-04-23T22:18:19.985Z,0
2017-04-23T22:19:20.292Z,0
2017-04-23T22:20:19.961Z,0
2017-04-23T22:21:20.261Z,0
2017-04-23T22:22:19.932Z,0
2017-04-23T22:23:20.263Z,0
2017-04-23T22:24:19.585Z,0
2017-04-23T22:25:20.202Z,0
2017-04-23T22:26:19.873Z,0
2017-04-23T22:27:19.865Z,0
2017-04-23T22:28:20.162Z,0
2017-04-23T22:29:20.149Z,0
2017-04-23T22:30:20.131Z,0
2017-04-23T22:31:19.797Z,0
2017-04-23T22:32:20.129Z,0
2017-04-23T22:33:19.777Z,0
2017-04-23T22:34:19.761Z,0
2017-04-23T22:35:19.747Z,0
2017-04-23T22:36:19.726Z,0
2017-04-23T22:37:20.027Z,0
2017-04-23T22:38:19.387Z,0
2017-04-23T22:39:19.684Z,0
2017-04-23T22:40:19.984Z,0
2017-04-23T22:41:19.969Z,0
2017-04-23T22:42:19.014Z,0
2017-04-23T22:43:19.629Z,0
2017-04-23T22:44:19.298Z,0
2017-04-23T22:45:19.595Z,0
2017-04-23T22:46:19.581Z,0
2017-04-23T22:47:19.565Z,0
2017-04-23T22:48:19.893Z,0
2017-04-23T22:49:19.860Z,0
2017-04-23T22:50:19.209Z,0
2017-04-23T22:51:19.819Z,0
2017-04-23T22:52:19.491Z,0
2017-04-23T22:53:19.480Z,0
2017-04-23T22:54:19.157Z,0
2017-04-23T22:55:19.444Z,0
2017-04-23T22:56:19.437Z,0
2017-04-23T22:57:19.731Z,0
2017-04-23T22:58:19.716Z,0
2017-04-23T22:59:19.389Z,0
2017-04-23T23:00:19.688Z,0
2017-04-23T23:01:19.040Z,0
2017-04-23T23:02:19.346Z,0
2017-04-23T23:03:19.335Z,0
2017-04-23T23:04:19.628Z,0
2017-04-23T23:05:19.317Z,0
2017-04-23T23:06:19.595Z,0
2017-04-23T23:07:19.270Z,0
2017-04-23T23:08:19.254Z,0
2017-04-23T23:09:19.547Z,0
2017-04-23T23:10:19.535Z,0
2017-04-23T23:11:19.207Z,0
2017-04-23T23:12:19.189Z,0
2017-04-23T23:13:19.172Z,0
2017-04-23T23:14:19.492Z,0
2017-04-23T23:15:19.456Z,0
2017-04-23T23:16:19.445Z,0
2017-04-23T23:17:19.434Z,0
2017-04-23T23:18:19.415Z,0
2017-04-23T23:19:18.455Z,0
2017-04-23T23:20:19.379Z,0
2017-04-23T23:21:19.060Z,0
2017-04-23T23:22:19.041Z,0
2017-04-23T23:23:19.021Z,0
2017-04-23T23:24:19.330Z,0
2017-04-23T23:25:19.311Z,0
2017-04-23T23:26:19.299Z,0
2017-04-23T23:27:18.968Z,0
2017-04-23T23:28:18.962Z,0
2017-04-23T23:29:19.262Z,0
2017-04-23T23:30:18.629Z,0
2017-04-23T23:31:18.937Z,0
2017-04-23T23:32:18.577Z,0
2017-04-23T23:33:19.196Z,0
2017-04-23T23:34:18.543Z,0
2017-04-23T23:35:19.157Z,0
2017-04-23T23:36:18.517Z,0
2017-04-23T23:37:18.816Z,0
2017-04-23T23:38:19.127Z,0
2017-04-23T23:39:19.107Z,0
2017-04-23T23:40:18.777Z,0
2017-04-23T23:41:18.127Z,0
2017-04-23T23:42:19.054Z,0
2017-04-23T23:43:18.740Z,0
2017-04-23T23:44:18.725Z,0
2017-04-23T23:45:18.701Z,0
2017-04-23T23:46:19.002Z,0
2017-04-23T23:47:18.987Z,0
2017-04-23T23:48:18.656Z,0
2017-04-23T23:49:18.961Z,0
2017-04-23T23:50:18.942Z,0
2017-04-23T23:51:18.933Z,0
2017-04-23T23:52:18.599Z,0
2017-04-23T23:53:18.901Z,0
2017-04-23T23:54:18.883Z,0
2017-04-23T23:55:18.870Z,0
2017-04-23T23:56:18.540Z,0
2017-04-23T23:57:18.531Z,0
2017-04-23T23:58:18.514Z,0
2017-04-23T23:59:18.191Z,0
